Carman, Illinois
Current Conditions -  °F | °C
As of 2:53 AM on Wednesday 26 Nov 2014 (Local Time) from KBRL Reporting Station
Clear Clear  
Wind Chill: 16°   Ceiling: Unl
Heat Index: 24°   Visibility: 10mi
Dew Point: 21°   Wind: 7mph
Humidity: 88%   Direction: 120°ESE
Pressure: 30.06"   Gusts: NA
Location:  40.74°N, 91.06°W
Report Text: KBRL 260853Z AUTO 12006KT 10SM CLR M04/M06 A3006 RMK AO2 SLP188 T10441061 57017
Loading
Personal Weather Stations






























Interactive Weather Map New forecast layout! Learn more

10-Day Weather Forecast

Advertisements
Track Severe Weather on mobile